Tiempo atmosférico en la estación meteorológica de A Coruña Aeropuerto, A Coruña (98 m.)



Fecha
DESCASC
Temp. máxima en grados centígrados (hora)
DESCASC
Temp. mínima en grados centígrados (hora)
DESCASC
Temp. media en grados centígrados
DESCASC
Racha de viento máxima en m/sg (hora)
DESCASC
Velocidad máxima media en intervalos de 10 minutos(hora)
DESCASC
Precipitaciones diarias en mm
DESCASC
Precipitaciones de 00:00 a 06:00 en mm
DESCASC
Precipitaciones de 06:00 a 12:00 en mm
DESCASC
Precipitaciones de 12:00 a 18:00 en mm
DESCASC
Precipitaciones de 18:00 a 24:00 en mm
DESCASC
13-10-2019 18.1 (02:00) 12.6 (23:40) 15.4 16.11 (04:20) 9.17 (05:50) 23.2 4.1 7.4 3.7 8
12-10-2019 22.8 (17:20) 13.2 (00:20) 18 15 (14:10) 9.44 (21:10) 0 0 0 0 0
11-10-2019 20.1 (17:00) 11.1 (06:40) 15.6 8.33 (09:30) 4.17 (16:40) 0 0 0 0 0
10-10-2019 -- (--) -- (--) -- -- (--) -- (--) -- 0 0 0 --
09-10-2019 19.3 (16:00) 9.9 (00:00) 14.6 7.22 (08:50) 4.44 (18:30) 0.4 0.3 0.1 0 0
08-10-2019 20.1 (04:50) 11.9 (00:00) 16 9.17 (09:50) 6.11 (10:00) 3 0 2.8 0.2 0
07-10-2019 23.2 (13:20) 9.7 (00:00) 16.5 8.33 (09:30) 3.89 (23:59) 0.1 0 0 0 0.1
06-10-2019 19.7 (14:10) 13.1 (00:00) 16.4 6.67 (17:00) 3.89 (16:20) 1.6 1.6 0 0 0
05-10-2019 20.7 (16:20) 10.2 (00:00) 15.5 7.78 (15:00) 4.44 (15:10) 0 0 0 0 0
04-10-2019 20.1 (16:20) 11.5 (00:00) 15.8 5.83 (14:30) 3.33 (15:10) 0 0 0 0 0
03-10-2019 21.8 (17:30) 9.6 (00:00) 15.7 11.39 (16:40) 8.33 (18:10) 0 0 0 0 0
02-10-2019 19.8 (16:40) 12.3 (00:00) 16 7.22 (04:50) 4.72 (04:40) 0 0 0 0 0
01-10-2019 22.1 (14:10) 15.9 (00:00) 19 12.5 (16:20) 6.67 (16:40) 0 0 0 0 0
30-09-2019 25 (16:20) 17.7 (00:00) 21.4 13.33 (17:00) 9.17 (18:30) 0 0 0 0 0
29-09-2019 22.2 (14:20) 14.8 (00:00) 18.5 15.28 (02:40) 11.11 (02:40) 1.7 0 0.4 0 1.3
28-09-2019 22.6 (15:10) 8.6 (00:00) 15.6 9.72 (22:40) 6.94 (22:40) 0 0 0 0 0
27-09-2019 20.5 (14:00) 13 (00:00) 16.8 10.83 (03:20) 7.78 (02:50) 4.5 3.1 1.4 0 0
26-09-2019 24.1 (15:30) 14.6 (00:00) 19.4 11.67 (15:40) 7.22 (21:20) 0 0 0 0 0
25-09-2019 22.4 (15:40) 13.5 (00:00) 17.9 10.28 (16:00) 6.67 (15:50) 0.3 0.3 0 0 0
24-09-2019 21.7 (14:40) 16.1 (00:00) 18.9 16.94 (01:50) 10.28 (01:50) 5.8 5.5 0.3 0 0
23-09-2019 19.7 (19:20) 15.5 (00:00) 17.6 19.72 (15:50) 11.94 (15:50) 0.3 0 0 0.3 0
22-09-2019 -- (--) -- (--) -- -- (--) -- (--) -- -- -- 0.1 0
21-09-2019 21.6 (13:00) 16.1 (00:00) 18.9 18.06 (13:50) 12.22 (13:50) 0.3 0 0.3 0 0
20-09-2019 23.7 (15:50) 13.4 (00:00) 18.6 9.17 (23:20) 4.72 (18:10) 0.6 0 0.6 0 0
19-09-2019 25.8 (16:10) 14.2 (00:00) 20 5.83 (15:30) 3.89 (15:40) 0 0 0 0 0
18-09-2019 27.4 (17:40) 15.7 (00:00) 21.5 6.67 (16:40) 3.61 (02:50) 0 0 0 0 0
17-09-2019 27 (16:10) 16.3 (00:00) 21.6 7.78 (19:00) 4.72 (19:00) 4.7 0 0 0 4.7
16-09-2019 24.7 (16:00) 13.9 (00:00) 19.3 9.72 (16:10) 5.56 (16:10) 0 0 0 0 0

Gráficas

Temp. máximas Temp. mínimas Temp. medias Precipitaciones Rachas de viento máximas Velocidades máximas media en intervalos de 10 minutos

Datos horarios

Fecha y hora oficial Temperatura (ºC) Velocidad del viento (km/h) Dirección del viento Racha (km/h) Dirección de racha Precipitación (mm) Presión (hPa) Tendencia (hPa) Humedad (%)
2019-10-15 23:00:00 15.6 24 Sur 55 Sur 0 1001.8 -0.6 82
2019-10-15 22:00:00 15 22 Sur 41 Sur 0 1002.2 -0.7 86
2019-10-15 21:00:00 15.1 22 Sur 42 Sur 0 1002.2 -1 86
2019-10-15 20:00:00 14.9 22 Sur 45 Sur 0 1002.4 -0.8 85
2019-10-15 19:00:00 14.7 28 Sudoeste 42 Sudoeste 0.5 1002.9 -0.9 87
2019-10-15 18:00:00 15.4 22 Sudoeste 45 Sudoeste 0.1 1003.2 -0.9 81
2019-10-15 17:00:00 15.2 22 Sudoeste 37 Sur 0 1003.2 -1.2 84
2019-10-15 16:00:00 14.7 22 Sudoeste 35 Sudoeste 1.6 1003.8 -1.3 89
2019-10-15 15:00:00 15.8 24 Sudoeste 41 Sur 0 1004.1 -1.2 79
2019-10-15 14:00:00 15.5 23 Sudoeste 41 Sudoeste 0.2 1004.4 -0.9 78
2019-10-15 13:00:00 15.4 25 Sudoeste 35 Sudoeste 0 1005.1 -0.1 79
2019-10-15 12:00:00 14.9 21 Sur 41 Sudoeste 0 1005.3 0.2 79
2019-10-15 11:00:00 13.7 26 Sur 42 Sudoeste 0 1005.3 0.1 83
2019-10-15 10:00:00 12.5 23 Sur 33 Sur 0 1005.2 0.1 87
2019-10-15 09:00:00 11.6 19 Sudoeste 33 Sudoeste 0 1005.1 0 87
2019-10-15 08:00:00 11.8 22 Sudoeste 30 Sudoeste 0 1005.2 0.1 86
2019-10-15 07:00:00 11.5 19 Sudoeste 30 Sudoeste 0 1005.1 -0.2 86
2019-10-15 06:00:00 11 14 Sur 24 Sudoeste 0 1005.1 -0.2 87
2019-10-15 05:00:00 10.4 16 Sudoeste 22 Sudoeste 0 1005.1 -0.2 89
2019-10-15 04:00:00 11.2 16 Sudoeste 24 Sudoeste 0 1005.3 0.2 84
2019-10-15 03:00:00 11.2 17 Sudoeste 22 Sudoeste 0 1005.3 0.3 87
2019-10-15 02:00:00 10.8 17 Sudoeste 22 Oeste 0 1005.3 0.6 90
2019-10-15 01:00:00 11.9 15 Sudoeste 26 Oeste 0 1005.1 1.4 86
2019-10-15 00:00:00 10.7 6 Sur 18 Sur 0 1005 1.7 95
2019-10-14 23:00:00 10.9 9 Norte 18 Sudeste 0.3 1004.7 2.2 93
2019-10-14 22:00:00 11.8 10 Sudoeste 26 Oeste 0.1 1003.7 2.5 84
2019-10-14 21:00:00 12.3 16 Oeste 30 Oeste 0 1003.3 2.9 77
2019-10-14 20:00:00 12.4 15 Oeste 41 Noroeste 0 1002.5 2.6 80
2019-10-14 19:00:00 13.2 26 Oeste 42 Oeste 0 1001.2 2.1 76
2019-10-14 18:00:00 14 16 Oeste 35 Sudoeste 0 1000.4 1.8 75
2019-10-14 17:00:00 13.2 17 Oeste 28 Sudoeste 0 999.9 1.6 74
2019-10-14 16:00:00 11 21 Oeste 59 Oeste 0.2 999.1 1.8 81
2019-10-14 15:00:00 13.7 17 Oeste 33 Noroeste 0.4 998.6 2.4 85
2019-10-14 14:00:00 11.6 19 Oeste 37 Oeste 1 998.3 3 92
2019-10-14 13:00:00 12 10 Oeste 52 Oeste 10.6 997.3 3 95
2019-10-14 12:00:00 14.3 10 Oeste 24 Oeste 0.1 996.2 2.5 87
2019-10-14 11:00:00 13.3 13 Sudoeste 26 Sudoeste 0.1 995.3 1.8 90
2019-10-14 10:00:00 12.5 12 Sudoeste 22 Sur 0.5 994.3 0.9 94
2019-10-14 09:00:00 12.5 9 Sur 18 Oeste 4 993.7 -0.1 94
2019-10-14 08:00:00 12.7 7 Noroeste 24 Sur 2.4 993.5 -0.6 93
2019-10-14 07:00:00 12.9 15 Sur 30 Sur 0.1 993.4 -1.2 90
2019-10-14 06:00:00 13 16 Sur 39 Sur 0 993.8 -1.9 90
2019-10-14 05:00:00 12.7 24 Sur 39 Sur 0 994.1 -2.2 91
2019-10-14 04:00:00 12.4 15 Sur 26 Sur 0.3 994.6 -2.1 97
2019-10-14 03:00:00 12.4 15 Sur 24 Sur 0.7 995.7 -1.5 98
2019-10-14 02:00:00 12.6 13 Sur 22 Sur 0.7 996.3 -1.3 95
2019-10-14 01:00:00 12.6 12 Sur 18 Sur 0 996.7 -1.5 96
2019-10-14 00:00:00 12.6 15 Sur 21 Sur 1 997.2 -0.6 99
2019-10-13 23:00:00 12.8 12 Sur 32 Sur 1.2 997.6 -0.4 95
2019-10-13 22:00:00 13.3 9 Sur 18 Sur 1.5 998.2 0.4 100
2019-10-13 21:00:00 13.6 7 Sur 11 Sudeste 1.1 997.8 -0.2 100
2019-10-13 20:00:00 14 0 Calma 18 Sudeste 2.2 998 -0.6 100
2019-10-13 19:00:00 14.3 5 Sudeste 11 Sur 1 997.8 -0.7 100
2019-10-13 18:00:00 14.3 9 Sur 28 Sudeste 0.9 998 -0.8 95
2019-10-13 17:00:00 14.2 12 Sudoeste 18 Sudoeste 0.5 998.6 -0.7 90
2019-10-13 16:00:00 14.6 4 Norte 15 Oeste 0.6 998.5 -1 90
2019-10-13 15:00:00 14.9 5 Oeste 13 Oeste 0.8 998.8 -0.6 92
2019-10-13 14:00:00 15.5 3 Norte 9 Este 0.1 999.3 0.5 94
2019-10-13 13:00:00 15.5 3 Este 21 Sur 0.8 999.5 1.3 93
2019-10-13 12:00:00 15.2 4 Sudeste 18 Sudeste 0.7 999.4 2.6 93
2019-10-13 11:00:00 14.8 5 Sur 17 Sur 0.2 998.8 3 94
2019-10-13 10:00:00 14.3 9 Sudoeste 11 Sudoeste 0 998.2 3.5 98
2019-10-13 09:00:00 13.5 5 Noroeste 26 Oeste 0 996.8 3.4 100
2019-10-13 08:00:00 14.2 13 Oeste 26 Noroeste 1.9 995.8 3.2 100
2019-10-13 07:00:00 15.2 17 Noroeste 33 Oeste 4.6 994.7 1.7 94
2019-10-13 06:00:00 16.4 18 Sudoeste 50 Sur 4.1 993.4 -0.8 91
2019-10-13 05:00:00 17.7 29 Sur 58 Sur 0 992.6 -2.2 78
2019-10-13 04:00:00 17.1 28 Sur 52 Sur 0 993 -2.5 82
2019-10-13 03:00:00 17.8 29 Sur 55 Sur 0 994.2 -1.4 75
2019-10-13 02:00:00 18 23 Sur 46 Sur 0 994.8 -1 70
2019-10-13 01:00:00 17.6 25 Sur 41 Sur 0 995.5 -0.3 71
2019-10-13 00:00:00 17.5 24 Sur 45 Sur 0 995.6 -0.1 73
2019-10-12 23:00:00 17.5 27 Sur 48 Sudoeste 0 995.8 -0.3 74
2019-10-12 22:00:00 17.6 30 Sur 54 Sudoeste 0 995.8 -0.8 72
2019-10-12 21:00:00 17.6 32 Sur 52 Sur 0 995.7 -1.2 73
2019-10-12 20:00:00 18.4 28 Sudoeste 48 Sudoeste 0 996.1 -1.1 68
2019-10-12 19:00:00 20.1 14 Sur 48 Sudoeste 0 996.6 -0.5 62
2019-10-12 18:00:00 21.3 22 Sur 46 Sudoeste 0 996.9 -0.8 59
2019-10-12 17:00:00 22.3 23 Sudoeste 48 Sur 0 997.2 -1.1 56
2019-10-12 16:00:00 22.3 27 Sudoeste 46 Sudoeste 0 997.1 -1.8 56
2019-10-12 15:00:00 22.2 28 Sur 54 Sur 0 997.7 -1.7 55
2019-10-12 14:00:00 21.5 26 Sudoeste 46 Sur 0 998.3 -1.1 55
2019-10-12 13:00:00 20.1 23 Sur 46 Sudoeste 0 998.9 -0.8 62
2019-10-12 12:00:00 18.7 16 Sur 35 Sur 0 999.4 -0.1 68
2019-10-12 11:00:00 17.2 11 Sudeste 24 Sur 0 999.4 -0.1 78
2019-10-12 10:00:00 16.1 11 Sur 17 Sur 0 999.7 0.4 83
2019-10-12 09:00:00 14.6 4 Sur 13 Sur 0 999.5 -0.2 87
2019-10-12 08:00:00 15 0 Calma 18 Sudeste 0 999.5 -0.5 87
2019-10-12 07:00:00 15.1 4 Sudeste 13 Este 0 999.3 -1.4 87
2019-10-12 06:00:00 15.3 6 Sudeste 18 Sudoeste 0 999.7 -1.7 86
2019-10-12 05:00:00 15.3 12 Sur 17 Sudoeste 0 1000 -1.8 86
2019-10-12 04:00:00 15.3 5 Sur 17 Sur 0 1000.7 -1.9 85
2019-10-12 03:00:00 14.9 9 Sur 15 Sur 0 1001.4 -1.5 86
2019-10-12 02:00:00 14.6 7 Sur 13 Sur 0 1001.8 -1 86
2019-10-12 01:00:00 14.4 8 Sudoeste 13 Sudoeste 0 1002.6 0 89
2019-10-12 00:00:00 13.6 4 Sur 11 Sur 0 1002.9 0.2 94
2019-10-11 23:00:00 14.4 9 Sur 13 Sur 0 1002.8 0.5 91
2019-10-11 22:00:00 14.7 10 Sur 24 Sur 0 1002.6 -0.1 91
2019-10-11 21:00:00 15.5 10 Sur 18 Sur 0 1002.7 0 87
2019-10-11 20:00:00 16.7 4 Norte 15 Norte 0 1002.3 -0.5 80
2019-10-11 19:00:00 18.7 8 Noroeste 21 Oeste 0 1002.7 -0.4 73
2019-10-11 18:00:00 19.7 11 Norte 22 Norte 0 1002.7 -0.9 70
2019-10-11 17:00:00 19.9 12 Norte 22 Norte 0 1002.8 -1.9 69
2019-10-11 16:00:00 19.6 12 Norte 18 Norte 0 1003.1 -2.3 71
2019-10-11 15:00:00 19.5 9 Nordeste 13 Nordeste 0 1003.6 -2 72
2019-10-11 14:00:00 17.1 7 Norte 17 Norte 0 1004.7 -1.2 81
2019-10-11 13:00:00 16.1 10 Noroeste 15 Norte 0 1005.4 -0.3 87
2019-10-11 12:00:00 15.2 5 Sudoeste 13 Sudeste 0 1005.6 0.2 94
2019-10-11 11:00:00 13 10 Sur 21 Sur 0 1005.9 0.7 100
2019-10-11 10:00:00 11.7 9 Sur 30 Sur 0 1005.7 0.5 100
2019-10-11 09:00:00 11.3 11 Sur 21 Sudeste 0 1005.4 0.4 100
2019-10-11 08:00:00 11.6 8 Sur 22 Sur 0 1005.2 -0.2 100
2019-10-11 07:00:00 11.5 5 Sur 9 Sur 0 1005.2 -0.5 100
2019-10-11 06:00:00 11.7 0 Calma 13 Sur 0 1005 -0.7 100
2019-10-11 05:00:00 12.1 10 Sur 15 Sur 0 1005.4 -0.7 100
2019-10-11 04:00:00 12.8 5 Sur 8 Sur 0 1005.7 -0.9 99
2019-10-11 03:00:00 14.2 4 Sur 8 Sur 0 1005.7 -1.5 97
2019-10-11 02:00:00 14.4 8 Sur 11 Sur 0 1006.1 -1.4 95
2019-10-11 01:00:00 15.7 3 Noroeste 11 Este 0 1006.6 -1 90
2019-10-11 00:00:00 16.1 6 Sur 11 Sudeste 0 1007.2 -0.1 91
2019-10-10 23:00:00 16 0 Calma 8 Noroeste 0 1007.5 0.4 92
2019-10-10 22:00:00 15.7 4 Noroeste 9 Oeste 0 1007.6 0.2 92
2019-10-10 21:00:00 15.6 5 Noroeste 9 Norte 0 1007.3 -0.3 91
2019-10-10 20:00:00 16.1 3 Noroeste -- -- -- 1007.1 -0.9 88
2019-10-10 19:00:00 17.8 11 Norte 24 Noroeste 0 1007.4 -1.1 79
2019-10-10 18:00:00 18.3 14 Norte 28 Noroeste 0 1007.6 -1.8 74
2019-10-10 17:00:00 19.2 13 Norte 22 Norte 0 1008 -2.2 72
2019-10-10 16:00:00 19.4 13 Norte 24 Norte 0 1008.5 -2.1 70
2019-10-10 15:00:00 19.3 13 Norte 18 Norte 0 1009.4 -1.6 67
2019-10-10 14:00:00 19 11 Norte 18 Norte 0 1010.2 -1.2 68
2019-10-10 13:00:00 18.8 4 Nordeste 22 Sudeste 0 1010.6 -0.5 68
2019-10-10 12:00:00 16.7 8 Sur 15 Sur 0 1011 0.1 79
2019-10-10 11:00:00 12.2 8 Sur 11 Sudeste 0 1011.4 0.6 100
2019-10-10 10:00:00 9.2 10 Sur 26 Sur 0 1011.1 0.4 100
2019-10-10 09:00:00 8.1 9 Sur 21 Sur 0 1010.9 0.2 100
2019-10-10 08:00:00 8.6 12 Sur 24 Sudeste 0 1010.8 -0.2 100
2019-10-10 07:00:00 8.8 10 Sur 13 Sur 0 1010.7 -0.6 100
2019-10-10 06:00:00 9 7 Sur 13 Sur 0 1010.7 -1 100
2019-10-10 05:00:00 9.4 10 Sur 13 Sur 0 1011 -0.8 100
2019-10-10 04:00:00 9.8 10 Sur 15 Sur 0 1011.3 -0.8 100
2019-10-10 03:00:00 10.1 8 Sur 13 Sur 0 1011.7 -0.4 100
2019-10-10 02:00:00 10.5 5 Sur 13 Sur 0 1011.8 -0.2 100
2019-10-10 01:00:00 10.9 9 Sur 13 Sur 0 1012.1 0.3 98
2019-10-10 00:00:00 11.8 8 Sur 15 Sudeste 0 1012.1 0.3 93
2019-10-09 23:00:00 12.4 8 Sudoeste 13 Sur 0 1012 0.3 89
2019-10-09 22:00:00 13.1 5 Sur 13 Sur 0 1011.8 0.3 85
2019-10-09 21:00:00 14.2 -- -- -- -- 0 1011.8 0.6 80
2019-10-09 20:00:00 15.7 6 Noroeste 18 Norte 0 1011.7 0.3 73
2019-10-09 19:00:00 16.7 13 Norte 24 Norte 0 1011.5 -0.1 71
2019-10-09 18:00:00 18.3 13 Norte 24 Noroeste 0 1011.2 -0.5 64
2019-10-09 17:00:00 18.5 14 Norte 22 Norte 0 1011.4 -0.4 59
2019-10-09 16:00:00 18.9 10 Norte 24 Noroeste 0 1011.6 -0.4 56
2019-10-09 15:00:00 18.7 10 Norte 22 Norte 0 1011.7 -0.4 60
2019-10-09 14:00:00 17.6 11 Norte 21 Norte 0 1011.8 -0.2 61
2019-10-09 13:00:00 17.3 9 Norte 22 Norte 0 1012 0.4 67
2019-10-09 12:00:00 16.2 5 Norte 21 Sur 0 1012.1 1.2 81
2019-10-09 11:00:00 12.4 11 Sur 22 Sudeste 0.1 1012 1.4 100
2019-10-09 10:00:00 10.8 10 Sur 26 Sur 0 1011.6 1.2 100
2019-10-09 09:00:00 10 8 Sur 26 Sur 0 1010.9 0.7 100
2019-10-09 08:00:00 10 8 Sur 15 Sur 0 1010.6 0.3 100
2019-10-09 07:00:00 10.2 9 Sur 17 Sur 0 1010.4 0.1 100
2019-10-09 06:00:00 10.3 8 Sur 11 Sur 0 1010.2 -0.3 100
2019-10-09 05:00:00 10.7 10 Sur 13 Sur 0.3 1010.3 -0.1 100
2019-10-09 04:00:00 10.7 7 Sur 13 Oeste 0 1010.3 -0.1 100
2019-10-09 03:00:00 11.2 4 Sur 11 Sur 0 1010.5 0.1 100
2019-10-09 02:00:00 11.2 8 Sur 11 Sur 0 1010.4 0 100
2019-10-09 01:00:00 11.7 8 Sur 18 Sur 0 1010.4 -0.1 100
2019-10-09 00:00:00 12 7 Sur 11 Sur 0 1010.4 0.3 100
2019-10-08 23:00:00 12.8 4 Sudoeste 8 Oeste 0 1010.4 0.7 92
2019-10-08 22:00:00 13.7 6 Noroeste 9 Oeste 0 1010.5 1.2 91
2019-10-08 21:00:00 14.6 6 Noroeste 13 Noroeste 0 1010.1 1 87
2019-10-08 20:00:00 16 4 Noroeste 18 Norte 0 1009.7 0.8 81
2019-10-08 19:00:00 17.1 14 Noroeste 24 Noroeste 0 1009.3 0.3 75
2019-10-08 18:00:00 17.3 14 Noroeste 26 Noroeste 0 1009.1 0.1 78
2019-10-08 17:00:00 17.3 17 Noroeste 28 Noroeste 0 1008.9 -0.3 80
2019-10-08 16:00:00 16.6 10 Norte 26 Norte 0 1009 -0.3 83
2019-10-08 15:00:00 18.1 4 Noroeste 8 Norte 0 1009 -0.2 79
2019-10-08 14:00:00 17.1 3 Este 8 Sudeste 0 1009.2 0.7 91
2019-10-08 13:00:00 15.5 5 Norte 26 Norte 0.2 1009.3 2.2 100
2019-10-08 12:00:00 15.6 15 Norte 32 Norte 0.2 1009.2 3.1 100
2019-10-08 11:00:00 16 15 Norte 33 Norte 0.7 1008.5 2.5 100
2019-10-08 10:00:00 17.4 22 Norte 33 Norte 1 1007.1 1 100
2019-10-08 09:00:00 19.2 8 Sudoeste 24 Sudoeste 0.5 1006.1 0.2 95
2019-10-08 08:00:00 19.2 17 Sudoeste 24 Sudoeste 0.4 1006 -0.4 93
2019-10-08 07:00:00 19.7 15 Sudoeste 21 Sudoeste 0 1006.1 -0.6 88
2019-10-08 06:00:00 19.6 12 Sudoeste 21 Sudoeste 0 1005.9 -1.2 87
2019-10-08 05:00:00 19.9 6 Oeste 22 Sudoeste 0 1006.4 -1 85
2019-10-08 04:00:00 19.3 11 Sur 15 Sur 0 1006.7 -1.1 91
2019-10-08 03:00:00 18.6 12 Sur 13 Sur 0 1007.1 -1.2 94
2019-10-08 02:00:00 18.4 10 Sur 13 Sur 0 1007.4 -1.2 93
2019-10-08 01:00:00 18 10 Sudeste 17 Sur 0 1007.8 -0.5 93
2019-10-08 00:00:00 18.3 14 Sur 22 Sur 0.1 1008.3 0.4 91
2019-10-07 23:00:00 19.3 5 Sur 21 Sur 0 1008.6 -- 78
2019-10-07 22:00:00 19.6 3 Sudeste 8 Norte 0 1008.3 0 75
2019-10-07 21:00:00 19 5 Noroeste 8 Noroeste 0 1007.9 -0.5 76
2019-10-07 20:00:00 -- -- -- -- -- -- -- -- --
2019-10-07 19:00:00 20.2 7 Nordeste 15 Norte 0 1008.3 -0.4 68
2019-10-07 18:00:00 20.8 8 Norte 17 Norte 0 1008.4 -0.6 62
2019-10-07 17:00:00 22 5 Norte 11 Norte 0 1008.5 -0.9 60
2019-10-07 16:00:00 21.8 6 Norte 11 Nordeste 0 1008.7 -1.1 57
2019-10-07 15:00:00 22.3 6 Norte 17 Norte 0 1009 -0.8 56
2019-10-07 14:00:00 22.9 10 Norte 13 Norte 0 1009.4 -0.4 56
2019-10-07 13:00:00 22.5 4 Sur 13 Sur 0 1009.8 0.4 56
2019-10-07 12:00:00 19.3 9 Sur 18 Sur 0 1009.8 0.3 66
2019-10-07 11:00:00 15.2 8 Sur 15 Sudeste 0 1009.8 0.2 86
2019-10-07 10:00:00 11.6 9 Sur 30 Sudeste 0 1009.4 -0.1 100
2019-10-07 09:00:00 10 10 Sur 21 Sur 0 1009.5 0.5 100
2019-10-07 08:00:00 9.8 12 Sur 18 Sudeste 0 1009.6 0.7 100
2019-10-07 07:00:00 10.3 8 Sur 13 Sur 0 1009.5 0.3 100
2019-10-07 06:00:00 10.4 5 Sur 13 Sur 0 1009 -0.7 100
2019-10-07 05:00:00 10.8 7 Sur 13 Sur 0 1008.9 -1 100
2019-10-07 04:00:00 11.1 8 Sur 13 Sur 0 1009.2 -1.4 100
2019-10-07 03:00:00 11.5 9 Sur 11 Sur 0 1009.7 -1 100
2019-10-07 02:00:00 11.9 8 Sur 13 Sur 0 1009.9 -0.9 100
2019-10-07 01:00:00 12.5 8 Sur 11 Sur 0 1010.6 -0.4 100
2019-10-07 00:00:00 13.2 4 Sur 17 Sur 0 1010.7 -0.3 94
2019-10-06 23:00:00 14.4 4 Sur 8 Sur 0 1010.8 -0.1 87
2019-10-06 22:00:00 15.1 2 Noroeste 5 Noroeste 0 1011 0.5 84
2019-10-06 21:00:00 15.6 3 Oeste 13 Noroeste 0 1011 0.9 84
2019-10-06 20:00:00 16.7 9 Noroeste 17 Norte 0 1010.9 0.7 81
2019-10-06 19:00:00 17.7 10 Norte 21 Norte 0 1010.5 0.2 77
2019-10-06 18:00:00 19.1 12 Nordeste 21 Norte 0 1010.1 -0.9 72
2019-10-06 17:00:00 19.1 14 Norte 24 Norte 0 1010.2 -1.1 73
2019-10-06 16:00:00 19.2 14 Nordeste 21 Norte 0 1010.3 -1.3 75
2019-10-06 15:00:00 19.3 13 Nordeste 22 Nordeste 0 1011 -0.5 77
2019-10-06 14:00:00 19.5 10 Norte 17 Norte 0 1011.3 0 73
2019-10-06 13:00:00 18.6 6 Norte 13 Nordeste 0 1011.6 0.7 80
2019-10-06 12:00:00 16.2 0 Calma 8 Norte 0 1011.5 1.3 95
2019-10-06 11:00:00 16.2 4 Nordeste 9 Este 0 1011.3 1.8 100
2019-10-06 10:00:00 15.4 4 Noroeste 8 Noroeste 0 1010.9 2 100
2019-10-06 09:00:00 15.2 0 Calma 9 Sudeste 0 1010.2 1.3 100
2019-10-06 08:00:00 15 3 Sudeste -- -- 0 1009.5 0.8 100
2019-10-06 07:00:00 14.8 4 Sur 13 Sur 0 1008.9 0 100
2019-10-06 06:00:00 14.8 5 Sudeste 9 Sur 0 1008.9 -0.2 100
2019-10-06 05:00:00 14.7 6 Sur 11 Sur 0.2 1008.7 -0.3 100
2019-10-06 04:00:00 14.8 8 Sur 11 Sudeste 0 1008.9 -0.2 100
2019-10-06 03:00:00 15 5 Sur 8 Sur 1 1009.1 0 100
2019-10-06 02:00:00 15.4 0 Calma 15 Sur 0.4 1009 0.1 95
2019-10-06 01:00:00 15.6 9 Sur 13 Sur 0 1009.1 0.7 88
2019-10-06 00:00:00 15.4 9 Sur 18 Sur 0 1009.1 0.7 89
2019-10-05 23:00:00 15.7 7 Sur 15 Sur 0 1008.9 1 84
2019-10-05 22:00:00 15.3 10 Sur 15 Sur 0 1008.4 1 84
2019-10-05 21:00:00 16.6 4 Sur 11 Este 0 1008.4 1.3 75
2019-10-05 20:00:00 17.8 5 Nordeste 11 Nordeste 0 1007.9 0.7 70
2019-10-05 19:00:00 19.9 9 Nordeste 13 Nordeste 0 1007.4 0.4 62
2019-10-05 18:00:00 20.4 5 Oeste 17 Sur 0 1007.1 -0.4 58
2019-10-05 17:00:00 20 7 Noroeste 15 Noroeste 0 1007.2 -0.3 57
2019-10-05 16:00:00 20.1 3 Norte 28 Noroeste 0 1007 -0.5 57
2019-10-05 15:00:00 19.2 15 Noroeste 28 Noroeste 0 1007.5 -0.1 58
2019-10-05 14:00:00 19.7 6 Noroeste 17 Sur 0 1007.5 -0.1 59
2019-10-05 13:00:00 19.8 10 Sur 18 Sudoeste 0 1007.5 0.3 58
2019-10-05 12:00:00 18.2 8 Oeste 17 Oeste 0 1007.6 0.9 63
2019-10-05 11:00:00 15.7 6 Sur 11 Sur 0 1007.6 1.5 79
2019-10-05 10:00:00 12.4 8 Sur 13 Sur 0 1007.2 1.3 94
2019-10-05 09:00:00 11.6 6 Sur 13 Sur 0 1006.7 0.6 100
2019-10-05 08:00:00 11.5 10 Sur 21 Sur 0 1006.1 0 99
2019-10-05 07:00:00 11.2 8 Sur 21 Sudeste 0 1005.9 -0.8 100
2019-10-05 06:00:00 11 6 Sur 11 Sur 0 1006.1 -1.1 100
2019-10-05 05:00:00 10.5 8 Sur 13 Sur 0 1006.1 -1.1 100
2019-10-05 04:00:00 10.5 8 Sur 13 Sur 0 1006.7 -0.5 100
2019-10-05 03:00:00 10.4 9 Sur 11 Sur 0 1007.2 0.1 100
2019-10-05 02:00:00 10.5 8 Sur 11 Sur 0 1007.2 0.1 100
2019-10-05 01:00:00 11 7 Sur 11 Sur 0 1007.2 0 100
2019-10-05 00:00:00 11.5 8 Sur 17 Sudeste 0 1007.1 0.1 100
2019-10-04 23:00:00 12.8 6 Sur 9 Sudeste 0 1007.1 0.1 85
2019-10-04 22:00:00 13.9 7 Sur 17 Sudeste 0 1007.2 0.5 84
2019-10-04 21:00:00 14.7 2 Oeste 8 Norte 0 1007 0.3 76
2019-10-04 20:00:00 17 5 Norte 17 Norte 0 1007 0 65
2019-10-04 19:00:00 18.6 10 Norte 18 Nordeste 0 1006.7 -0.8 63
2019-10-04 18:00:00 19.7 11 Nordeste 17 Nordeste 0 1006.7 -1.3 57
2019-10-04 17:00:00 19.6 10 Norte 17 Nordeste 0 1007 -1.3 56
2019-10-04 16:00:00 19.4 9 Nordeste 18 Nordeste 0 1007.5 -0.7 57
2019-10-04 15:00:00 19.4 10 Nordeste 21 Nordeste 0 1008 -0.3 59
2019-10-04 14:00:00 18.8 9 Norte 17 Nordeste 0 1008.3 -0.3 61
2019-10-04 13:00:00 18.9 6 Norte 13 Oeste 0 1008.2 -0.1 64
2019-10-04 12:00:00 17.9 5 Noroeste 13 Norte 0 1008.3 0.3 72
2019-10-04 11:00:00 17.3 4 Noroeste 11 Noroeste 0 1008.6 1 81
2019-10-04 10:00:00 16.2 3 Noroeste 8 Oeste 0 1008.3 0.9 99
2019-10-04 09:00:00 15.6 5 Oeste 8 Oeste 0 1008 0.7 100
2019-10-04 08:00:00 15.8 2 Noroeste 8 Noroeste 0 1007.6 0.3 97
2019-10-04 07:00:00 15.4 3 Oeste 8 Noroeste 0 1007.4 0 97
2019-10-04 06:00:00 16.6 6 Oeste 11 Sudoeste 0 1007.3 -0.5 88
2019-10-04 05:00:00 16.9 5 Oeste 15 Noroeste 0 1007.3 -0.6 82
2019-10-04 04:00:00 17 3 Noroeste 8 Noroeste 0 1007.4 -0.8 91
2019-10-04 03:00:00 17.2 4 Oeste 13 Oeste 0 1007.8 -0.4 90
2019-10-04 02:00:00 17.4 8 Oeste 15 Oeste 0 1007.9 -0.4 90
2019-10-04 01:00:00 17.6 6 Noroeste 13 Norte 0 1008.2 0.2 89
2019-10-04 00:00:00 17.9 5 Oeste 15 Oeste 0 1008.2 0.3 87
2019-10-03 23:00:00 17.9 8 Oeste 13 Oeste 0 1008.3 1.2 90
2019-10-03 22:00:00 17.7 11 Sudoeste 17 Sudoeste 0 1008 1.2 94
2019-10-03 21:00:00 18.3 12 Sudoeste 24 Oeste 0 1007.9 1.3 86
2019-10-03 20:00:00 18.4 19 Sudoeste 37 Sudoeste 0 1007.1 0.4 86
2019-10-03 19:00:00 19.1 26 Sudoeste 39 Sudoeste 0 1006.8 -0.3 82
2019-10-03 18:00:00 20.6 28 Sudoeste 37 Sudoeste 0 1006.6 -0.3 74
2019-10-03 17:00:00 20.9 28 Sudoeste 41 Sudoeste 0 1006.7 -0.9 73
2019-10-03 16:00:00 20.7 16 Sudoeste 37 Sudoeste 0 1007.1 -0.7 71
2019-10-03 15:00:00 20.7 26 Sudoeste 35 Sudoeste 0 1006.9 -1.4 68
2019-10-03 14:00:00 20.3 12 Sudoeste 26 Sudoeste 0 1007.6 -0.3 68
2019-10-03 13:00:00 20 21 Sudoeste 30 Sudoeste 0 1007.8 0.2 69
2019-10-03 12:00:00 18.5 14 Sur 28 Sur 0 1008.3 0.6 71
2019-10-03 11:00:00 15.3 12 Sur 28 Sur 0 1007.9 0.3 83
2019-10-03 10:00:00 13.8 10 Sur 21 Sur 0 1007.6 -0.1 93
2019-10-03 09:00:00 10.9 11 Sur 17 Sur 0 1007.7 0.1 100
2019-10-03 08:00:00 10.4 12 Sur 18 Sur 0 1007.6 -0.4 100
2019-10-03 07:00:00 10.2 10 Sur 18 Sur 0 1007.7 -0.4 100
2019-10-03 06:00:00 9.9 12 Sur 15 Sur 0 1007.6 -0.4 100
2019-10-03 05:00:00 10.2 5 Sur 13 Sur 0 1008 -0.2 100
2019-10-03 04:00:00 10.6 5 Sur 13 Sur 0 1008.1 -0.6 100
2019-10-03 03:00:00 10.9 9 Sur 13 Sur 0 1008 -1.1 100
2019-10-03 02:00:00 11.4 8 Sur 11 Sur 0 1008.2 -1.1 100
2019-10-03 01:00:00 12.1 8 Sur 21 Sudeste 0 1008.7 -1.1 100
2019-10-03 00:00:00 12.4 6 Sur 11 Sur 0 1009.1 -0.9 100
2019-10-02 23:00:00 13.8 0 Calma 8 Sudoeste 0 1009.3 -0.6 99
2019-10-02 22:00:00 15 0 Calma 17 Sudeste 0 1009.8 0 94
2019-10-02 21:00:00 15.5 3 Noroeste 13 Nordeste 0 1010 0.2 87
2019-10-02 20:00:00 16.5 8 Norte 13 Norte 0 1009.9 0 80
2019-10-02 19:00:00 18.2 7 Norte 17 Norte 0 1009.8 -0.4 68
2019-10-02 18:00:00 19.2 11 Norte 22 Norte 0 1009.8 -0.3 65
2019-10-02 17:00:00 19.3 12 Norte 22 Norte 0 1009.9 -0.4 65
2019-10-02 16:00:00 19.3 13 Norte 22 Nordeste 0 1010.2 -0.2 64
2019-10-02 15:00:00 19.2 13 Nordeste 18 Nordeste 0 1010.1 -0.3 66
2019-10-02 14:00:00 18.7 5 Noroeste 18 Noroeste 0 1010.3 0.1 65
2019-10-02 13:00:00 18.2 10 Norte 17 Norte 0 1010.4 1 69
2019-10-02 12:00:00 17.7 8 Noroeste 17 Noroeste 0 1010.4 1.7 70
2019-10-02 11:00:00 17.1 7 Noroeste 18 Oeste 0 1010.2 2 78
2019-10-02 10:00:00 14.9 7 Sudoeste 9 Sudoeste 0 1009.4 1.5 98
2019-10-02 09:00:00 14.1 4 Sur 11 Oeste 0 1008.7 0.9 96
2019-10-02 08:00:00 14.8 7 Oeste 15 Noroeste 0 1008.2 0.2 88
2019-10-02 07:00:00 15.2 9 Oeste 26 Noroeste 0 1007.9 -0.6 85
2019-10-02 06:00:00 15.7 10 Noroeste 21 Oeste 0 1007.8 -0.5 82
2019-10-02 05:00:00 15.7 13 Oeste 26 Oeste 0 1008 -0.2 85
2019-10-02 04:00:00 15.5 13 Oeste 21 Oeste 0 1008.5 0.2 88
2019-10-02 03:00:00 15.6 8 Oeste 22 Oeste 0 1008.3 0.2 87
2019-10-02 02:00:00 16.2 12 Oeste 21 Oeste 0 1008.2 0.3 82
2019-10-02 01:00:00 15.8 12 Oeste 21 Oeste 0 1008.3 0.7 86
2019-10-02 00:00:00 16.3 13 Oeste 22 Oeste 0 1008.1 1.2 82
2019-10-01 23:00:00 16 10 Sudoeste 17 Oeste 0 1007.9 1.5 85
2019-10-01 22:00:00 16.1 11 Oeste 18 Oeste 0 1007.6 1.7 85
2019-10-01 21:00:00 16.4 10 Oeste 22 Oeste 0 1006.9 1.3 84
2019-10-01 20:00:00 17 13 Oeste 30 Oeste 0 1006.4 1.2 84
2019-10-01 19:00:00 18.4 14 Noroeste 33 Noroeste 0 1005.9 1.2 72
2019-10-01 18:00:00 19.4 20 Noroeste 37 Noroeste 0 1005.6 0.8 68
2019-10-01 17:00:00 19.6 20 Noroeste 45 Noroeste 0 1005.2 0.5 68
2019-10-01 16:00:00 20.3 24 Noroeste 39 Oeste 0 1004.7 -0.1 69
2019-10-01 15:00:00 20.8 19 Noroeste 42 Oeste 0 1004.8 -0.1 61
2019-10-01 14:00:00 21.5 21 Oeste 35 Oeste 0 1004.7 0.3 59
2019-10-01 13:00:00 21 17 Oeste 33 Oeste 0 1004.8 1 66
2019-10-01 12:00:00 19.7 14 Oeste 30 Oeste 0 1004.9 1.7 70
2019-10-01 11:00:00 19.3 9 Oeste 24 Noroeste 0 1004.4 1.9 75
2019-10-01 10:00:00 18.2 10 Oeste 24 Oeste 0 1003.8 1.5 81
2019-10-01 09:00:00 17 10 Oeste 28 Oeste 0 1003.2 1.3 88
2019-10-01 08:00:00 17.3 12 Oeste 22 Oeste 0 1002.5 0.8 87
2019-10-01 07:00:00 17.7 10 Oeste 22 Oeste 0 1002.3 -0.1 84
2019-10-01 06:00:00 17.9 12 Oeste 21 Oeste 0 1001.9 -0.4 85
2019-10-01 05:00:00 17.1 5 Sur 11 Sur 0 1001.7 -0.7 100
2019-10-01 04:00:00 17.8 9 Sudoeste 28 Sudoeste 0 1002.4 0 94
2019-10-01 03:00:00 18.2 18 Sur 33 Sur 0 1002.3 -0.3 87
2019-10-01 02:00:00 18.5 15 Sur 32 Sudoeste 0 1002.4 -0.5 81
2019-10-01 01:00:00 18.8 15 Sur 33 Sur 0 1002.4 -0.7 79
2019-10-01 00:00:00 19 20 Sur 35 Sur 0 1002.6 -0.1 78
2019-09-30 23:00:00 19.1 19 Sur 30 Sudoeste 0 1002.9 0.2 75
2019-09-30 22:00:00 19.2 19 Sur 26 Sur 0 1003.1 0.4 75
2019-09-30 21:00:00 19.2 15 Sudoeste 24 Sur 0 1002.7 -0.3 76
2019-09-30 20:00:00 20.5 18 Sudoeste 32 Sudoeste 0 1002.7 -0.2 72
2019-09-30 19:00:00 22.1 21 Sudoeste 46 Sur 0 1002.7 -0.4 64
2019-09-30 18:00:00 23.2 26 Sudoeste 48 Sur 0 1003 -0.6 63
2019-09-30 17:00:00 23.6 32 Sudoeste 48 Sudoeste 0 1002.9 -1.4 64
2019-09-30 16:00:00 24.4 22 Sur 39 Sudoeste 0 1003.1 -1.3 66
2019-09-30 15:00:00 24.5 23 Sudoeste 33 Sudoeste 0 1003.6 -1 66
2019-09-30 14:00:00 23 18 Sudoeste 28 Sudoeste 0 1004.3 -0.4 77
2019-09-30 13:00:00 22.4 20 Sudoeste 30 Sudoeste 0 1004.4 -0.3 78
2019-09-30 12:00:00 21.2 12 Sur 24 Sur 0 1004.6 0.1 85
2019-09-30 11:00:00 20.3 13 Sur 21 Sur 0 1004.7 0.6 88
2019-09-30 10:00:00 19.3 6 Sur 22 Sur 0 1004.7 0.5 93
2019-09-30 09:00:00 19.2 15 Sudoeste 28 Sudoeste 0 1004.5 0 92
2019-09-30 08:00:00 19.5 16 Sudoeste 30 Sudoeste 0 1004.1 -0.5 90
2019-09-30 07:00:00 19.2 10 Sur 35 Sudeste 0 1004.2 -0.8 91
2019-09-30 06:00:00 19.3 13 Sudoeste 22 Sudoeste 0 1004.5 -0.8 91
2019-09-30 05:00:00 19 18 Sudoeste 24 Sudoeste 0 1004.6 -1.1 94
2019-09-30 04:00:00 18.6 13 Sur 18 Sur 0 1005 -0.9 94
2019-09-30 03:00:00 18.5 12 Sur 22 Sur 0 1005.3 -0.9 96
2019-09-30 02:00:00 18.1 12 Sur 21 Sur 0 1005.7 -0.9 96
2019-09-30 01:00:00 17.9 12 Sur 17 Sudeste 0 1005.9 -0.5 100
2019-09-30 00:00:00 17.8 7 Sudeste 17 Sudeste 0 1006.2 0.2 100
2019-09-29 23:00:00 17.9 4 Sur 15 Sudeste 0 1006.6 0.7 100
2019-09-29 22:00:00 17.8 0 Calma 9 Sudeste 0 1006.4 0.9 100
2019-09-29 21:00:00 17.9 3 Sudeste 8 Este 0.4 1006 0.7 100
2019-09-29 20:00:00 18.1 4 Norte 18 Norte 0.7 1005.9 0.8 100
2019-09-29 19:00:00 19.5 10 Sur 24 Sur 0.2 1005.5 0.5 91
2019-09-29 18:00:00 20.4 16 Sur 28 Sur 0 1005.3 0.2 83
2019-09-29 17:00:00 20.9 19 Sudoeste 28 Sudoeste 0 1005.1 -0.1 80
2019-09-29 16:00:00 20.9 19 Sudoeste 32 Sudoeste 0 1005 -0.1 81
2019-09-29 15:00:00 21 23 Sudoeste 45 Sudoeste 0 1005.1 0 82
2019-09-29 14:00:00 21.9 33 Sudoeste 45 Sudoeste 0 1005.2 0.6 75
2019-09-29 13:00:00 20.3 29 Sudoeste 42 Sur 0 1005.1 1.2 82
2019-09-29 12:00:00 18.9 26 Sudoeste 48 Sudoeste 0 1005.1 1.7 87
2019-09-29 11:00:00 18.2 32 Sudoeste 45 Sur 0.4 1004.6 1.5 89
2019-09-29 10:00:00 17.9 32 Sudoeste 46 Sudoeste 0 1003.9 0.6 88
2019-09-29 09:00:00 17.4 32 Sudoeste 54 Sudoeste 0 1003.4 -0.3 89
2019-09-29 08:00:00 17.4 33 Sudoeste 42 Sudoeste 0 1003.1 -1.3 86
2019-09-29 07:00:00 16.9 21 Sur 35 Sur 0 1003.3 -1.8 86
2019-09-29 06:00:00 16.7 17 Sur 39 Sur 0 1003.7 -1.1 85
2019-09-29 05:00:00 16.6 14 Sur 30 Sudoeste 0 1004.4 -0.7 85
2019-09-29 04:00:00 16.1 20 Sudoeste 45 Oeste 0 1005.1 -0.9 85
2019-09-29 03:00:00 16.3 33 Sudoeste 55 Sudoeste 0 1004.8 -1.1 83
2019-09-29 02:00:00 15.6 27 Sur 45 Sur 0 1005.1 -0.8 85
2019-09-29 01:00:00 15.1 18 Sur 33 Sur 0 1006 0 82
2019-09-29 00:00:00 15.6 16 Sur 28 Sur 0 1005.9 0.1 76
2019-09-28 23:00:00 16 17 Sur 35 Sudoeste 0 1005.9 -0.1 71
2019-09-28 22:00:00 16 10 Sudoeste 28 Sudoeste 0 1006 -0.1 79
2019-09-28 21:00:00 16.6 8 Sur 18 Sur 0 1005.8 -0.4 79
2019-09-28 20:00:00 18 5 Este 13 Este 0 1006 -0.8 72
2019-09-28 19:00:00 19.3 7 Nordeste 17 Nordeste 0 1006.1 -1.3 69
2019-09-28 18:00:00 19.8 11 Nordeste 22 Nordeste 0 1006.2 -1.4 65
2019-09-28 17:00:00 20.7 9 Nordeste 21 Norte 0 1006.8 -1.7 61
2019-09-28 16:00:00 19.6 15 Norte 24 Norte 0 1007.4 -2 64
2019-09-28 15:00:00 22.1 10 Sur 24 Sur 0 1007.6 -2.1 51
2019-09-28 14:00:00 21.2 13 Sur 22 Sudoeste 0 1008.5 -1.5 54
2019-09-28 13:00:00 20.3 6 Sur 21 Sudeste 0 1009.4 -0.6 60
2019-09-28 12:00:00 18 10 Sur 18 Sudeste 0 1009.7 0.1 72
2019-09-28 11:00:00 14.3 9 Sur 13 Sudeste 0 1010 0.7 89
2019-09-28 10:00:00 10.4 10 Sur 15 Sur 0 1010 0.6 100
2019-09-28 09:00:00 9.1 8 Sur 13 Sur 0 1009.6 -0.2 100
2019-09-28 08:00:00 8.7 10 Sur 26 Sudeste 0 1009.3 -0.7 100
2019-09-28 07:00:00 9.3 9 Sur 17 Sur 0 1009.4 -0.8 100
2019-09-28 06:00:00 9.8 11 Sur 13 Sur 0 1009.8 -0.4 100
2019-09-28 05:00:00 9.9 12 Sur 15 Sur 0 1010 -0.5 100
2019-09-28 04:00:00 10.1 8 Sur 11 Sur 0 1010.2 -0.6 100
2019-09-28 03:00:00 10.7 9 Sur 13 Sur 0 1010.2 -0.5 100
2019-09-28 02:00:00 11.3 11 Sur 15 Sur 0 1010.5 0.1 100
2019-09-28 01:00:00 12.3 9 Sur 17 Sur 0 1010.8 0.4 100
2019-09-28 00:00:00 13.1 8 Sur 11 Sur 0 1010.7 0.9 89
2019-09-27 23:00:00 15.2 7 Oeste 18 Oeste 0 1010.4 0.7 78
2019-09-27 22:00:00 15.4 12 Oeste 22 Oeste 0 1010.4 0.9 77
2019-09-27 21:00:00 15.8 10 Noroeste 24 Noroeste 0 1009.8 0.5 77
2019-09-27 20:00:00 17.3 13 Noroeste 26 Noroeste 0 1009.7 0.6 70
2019-09-27 19:00:00 19 13 Noroeste 32 Noroeste 0 1009.5 0.5 66
2019-09-27 18:00:00 18.2 19 Noroeste 37 Noroeste 0 1009.3 0.3 70
2019-09-27 17:00:00 19.1 21 Noroeste 35 Noroeste 0 1009.1 -0.2 65
2019-09-27 16:00:00 20 16 Noroeste 32 Noroeste 0 1009 -0.2 60
2019-09-27 15:00:00 19.7 13 Noroeste 33 Norte 0 1009 0 60
2019-09-27 14:00:00 20.3 17 Noroeste 32 Noroeste 0 1009.3 1 57
2019-09-27 13:00:00 19.2 13 Noroeste 30 Oeste 0 1009.2 1.6 70
2019-09-27 12:00:00 16.9 14 Noroeste 32 Noroeste 0.1 1009 1.8 97
2019-09-27 11:00:00 17.2 15 Noroeste 28 Noroeste 0.2 1008.3 1.3 100
2019-09-27 10:00:00 17.2 3 Oeste 17 Noroeste 0.2 1007.6 0.6 100
2019-09-27 09:00:00 16.7 6 Sur 18 Sudeste 0.2 1007.2 0.1 100
2019-09-27 08:00:00 16.8 7 Sudeste 13 Sudeste 0.2 1007 -0.1 100
2019-09-27 07:00:00 17 4 Sur 11 Sudoeste 0.5 1007 -0.3 100
2019-09-27 06:00:00 17.2 7 Sur 15 Oeste 0.6 1007.1 -0.1 100
2019-09-27 05:00:00 17.1 3 Oeste 24 Sudoeste 2.5 1007.1 -0.6 100
2019-09-27 04:00:00 17.8 21 Sudoeste 39 Sudoeste 0 1007.3 -0.8 89
2019-09-27 03:00:00 18.1 26 Sudoeste 37 Sudoeste 0 1007.2 -1 83
2019-09-27 02:00:00 17.9 23 Sudoeste 37 Sudoeste 0 1007.7 -0.3 84
2019-09-27 01:00:00 18 21 Sudoeste 32 Sudoeste 0 1008.1 0.3 82
2019-09-27 00:00:00 18 22 Sudoeste 39 Sudoeste 0 1008.2 0.7 81
2019-09-26 23:00:00 17.9 25 Sudoeste 32 Sudoeste 0 1008 0.6 80
2019-09-26 22:00:00 18.1 22 Sudoeste 35 Sudoeste 0 1007.8 0.3 77
2019-09-26 21:00:00 18.5 17 Sudoeste 33 Sudoeste 0 1007.5 0.2 74
2019-09-26 20:00:00 19.6 19 Sur 33 Sudoeste 0 1007.4 0.3 68
2019-09-26 19:00:00 20.4 15 Oeste 32 Sudoeste 0 1007.5 0.3 63
2019-09-26 18:00:00 21.9 19 Sudoeste 39 Sudoeste 0 1007.3 0 56
2019-09-26 17:00:00 23 19 Sudoeste 37 Sudoeste 0 1007.1 -0.5 53
2019-09-26 16:00:00 23.6 24 Sudoeste 42 Sudoeste 0 1007.2 -0.5 51
2019-09-26 15:00:00 23.1 25 Sudoeste 41 Sudoeste 0 1007.3 -0.7 52
2019-09-26 14:00:00 22 17 Sudoeste 33 Sudoeste 0 1007.6 -0.1 56
2019-09-26 13:00:00 21.6 23 Sudoeste 35 Oeste 0 1007.7 0.3 55
2019-09-26 12:00:00 20.5 16 Sudoeste 35 Sudoeste 0 1008 1.1 62
2019-09-26 11:00:00 19.8 15 Sur 28 Sudoeste 0 1007.7 0.8 70
2019-09-26 10:00:00 17.5 10 Sudoeste 21 Sur 0 1007.4 0.7 82
2019-09-26 09:00:00 16.2 9 Sur 22 Sur 0 1006.9 0 88
2019-09-26 08:00:00 16.3 11 Sur 21 Sur 0 1006.9 -0.3 87
2019-09-26 07:00:00 16.4 10 Sur 18 Sudoeste 0 1006.7 -0.6 85
2019-09-26 06:00:00 15.7 10 Sur 15 Sur 0 1006.9 -0.5 91
2019-09-26 05:00:00 15.4 9 Sur 13 Sur 0 1007.2 -0.5 91
2019-09-26 04:00:00 14.8 4 Sur 15 Sur 0 1007.3 -0.7 96
2019-09-26 03:00:00 15.5 9 Sur 21 Sudoeste 0 1007.4 -0.6 88
2019-09-26 02:00:00 15.9 13 Sur 21 Sur 0 1007.7 -0.4 87
2019-09-26 01:00:00 15.6 11 Sur 15 Sur 0 1008 0.3 88
2019-09-26 00:00:00 15.9 9 Sur 18 Sur 0 1008 0.6 84
2019-09-25 23:00:00 16.3 10 Sudoeste 15 Sudoeste 0 1008.1 0.9 85
2019-09-25 22:00:00 16.4 9 Sur 15 Sur 0 1007.7 0.7 82
2019-09-25 21:00:00 17.3 10 Sudoeste 22 Sudoeste 0 1007.4 0.3 78
2019-09-25 20:00:00 19.1 13 Oeste 28 Sudoeste 0 1007.2 0.1 67
2019-09-25 19:00:00 20.7 15 Oeste 32 Oeste 0 1007 -0.1 63
2019-09-25 18:00:00 21.7 20 Oeste 32 Sudoeste 0 1007.1 -0.4 59
2019-09-25 17:00:00 20.2 16 Sudoeste 35 Oeste 0 1007.1 -0.9 65
2019-09-25 16:00:00 21.5 23 Sudoeste 37 Sudoeste 0 1007.1 -1.4 57
2019-09-25 15:00:00 21.8 20 Sudoeste 33 Oeste 0 1007.5 -1.1 60
2019-09-25 14:00:00 21.1 17 Oeste 32 Oeste 0 1008 -0.5 62
2019-09-25 13:00:00 19.8 15 Sudoeste 32 Sudoeste 0 1008.5 0.5 68
2019-09-25 12:00:00 18.9 14 Sudoeste 26 Sudoeste 0 1008.6 1 71
2019-09-25 11:00:00 18 8 Sudoeste 18 Sudoeste 0 1008.5 1.1 78
2019-09-25 10:00:00 16.4 8 Sur 17 Sur 0 1008 0.8 84
2019-09-25 09:00:00 14.3 10 Sur 15 Sur 0 1007.6 0.3 100
2019-09-25 08:00:00 14.1 9 Sur 17 Sudoeste 0 1007.4 0.1 100
2019-09-25 07:00:00 14.6 12 Sudoeste 21 Sudoeste 0 1007.2 -0.4 92
2019-09-25 06:00:00 14.2 15 Sudoeste 18 Sudoeste 0 1007.3 -0.5 100
2019-09-25 05:00:00 14 10 Sudoeste 15 Sudoeste 0 1007.3 -0.4 100
2019-09-25 04:00:00 15.1 12 Sudoeste 30 Oeste 0.1 1007.6 -0.3 98
2019-09-25 03:00:00 15.3 12 Oeste 22 Oeste 0.2 1007.8 -0.3 93
2019-09-25 02:00:00 15.8 12 Oeste 21 Oeste 0 1007.7 -0.1 86
2019-09-25 01:00:00 16 12 Oeste 21 Oeste 0 1007.9 0.3 88
2019-09-25 00:00:00 16.1 10 Oeste 28 Oeste 0 1008.1 1 83
2019-09-24 23:00:00 16.1 12 Sudoeste 24 Sudoeste 0 1007.8 1 81
2019-09-24 22:00:00 16.6 13 Oeste 21 Oeste 0 1007.6 1.3 75
2019-09-24 21:00:00 17.2 13 Oeste 28 Oeste 0 1007.1 1.1 71
2019-09-24 20:00:00 18.4 13 Oeste 28 Oeste 0 1006.8 0.8 65
2019-09-24 19:00:00 19.6 14 Oeste 32 Oeste 0 1006.3 0.4 60
2019-09-24 18:00:00 19.8 16 Oeste 35 Oeste 0 1006 0.2 62
2019-09-24 17:00:00 20.5 22 Oeste 42 Oeste 0 1006 0.4 57
2019-09-24 16:00:00 21.2 19 Oeste 41 Oeste 0 1005.9 0.4 57
2019-09-24 15:00:00 20.1 19 Noroeste 37 Oeste 0 1005.8 0.5 63
2019-09-24 14:00:00 20.2 22 Oeste 39 Oeste 0 1005.6 0.8 61
2019-09-24 13:00:00 20.9 18 Sudoeste 33 Sudoeste 0 1005.5 1.3 65
2019-09-24 12:00:00 19.6 14 Oeste 33 Sudoeste 0 1005.3 1.7 70
2019-09-24 11:00:00 19.2 15 Oeste 32 Oeste 0 1004.8 1.6 74
2019-09-24 10:00:00 18.4 10 Oeste 21 Oeste 0 1004.2 1.4 80
2019-09-24 09:00:00 17.4 11 Oeste 32 Oeste 0 1003.6 1.6 87
2019-09-24 08:00:00 17.9 15 Oeste 30 Oeste 0 1003.2 1.5 90
2019-09-24 07:00:00 18.3 15 Oeste 24 Noroeste 0.3 1002.8 1 100
2019-09-24 06:00:00 18.8 6 Sudoeste 24 Sudoeste 0.2 1002 0.8 98
2019-09-24 05:00:00 18.5 7 Sur 24 Sur 0.4 1001.7 1.1 100
2019-09-24 04:00:00 18.1 11 Sudoeste 28 Sur 4.1 1001.8 0.5 100
2019-09-24 03:00:00 18.4 21 Sur 50 Sur 0.6 1001.2 -0.6 92
2019-09-24 02:00:00 18.8 34 Sur 61 Sudoeste 0.2 1000.6 -1.3 87
2019-09-24 01:00:00 18.3 25 Sur 46 Sudoeste 0 1001.3 -1.2 94
2019-09-24 00:00:00 18.4 28 Sur 50 Sur 0 1001.8 -0.8 86
2019-09-23 23:00:00 18.1 30 Sur 55 Sur 0 1001.9 -0.8 84
2019-09-23 22:00:00 18.3 30 Sur 54 Sur 0 1002.5 -0.5 82
2019-09-23 21:00:00 18.5 28 Sur 55 Sur 0 1002.6 -0.3 81
2019-09-23 20:00:00 19.1 32 Sur 54 Sur 0 1002.7 -0.4 78
2019-09-23 19:00:00 19.3 28 Sur 59 Sur 0 1003 0.2 77
2019-09-23 18:00:00 19.1 34 Sur 68 Sudoeste 0 1002.9 -0.4 76
2019-09-23 17:00:00 18.2 42 Sudoeste 67 Sur 0 1003.1 -0.6 80
2019-09-23 16:00:00 18 41 Sudoeste 71 Sudoeste 0.2 1002.8 -1.5 81
2019-09-23 15:00:00 18.5 36 Sur 59 Sur 0 1003.3 -0.9 77
2019-09-23 14:00:00 19 31 Sur 55 Sudoeste 0.1 1003.7 -1 74
2019-09-23 13:00:00 18.1 23 Sudoeste 50 Sur 0 1004.3 -0.1 78
2019-09-23 12:00:00 18.3 22 Sur 42 Sur 0 1004.2 -0.7 74
2019-09-23 11:00:00 17.6 22 Sur 39 Sur 0 1004.7 0.4 75
2019-09-23 10:00:00 17.2 28 Sur 45 Sur 0 1004.4 0.5 78
2019-09-23 09:00:00 16.8 21 Sur 32 Sur 0 1004.9 0.4 81
2019-09-23 08:00:00 16.5 17 Sur 28 Sur 0 1004.3 -0.7 82
2019-09-23 07:00:00 16.3 20 Sur 35 Sur 0 1003.9 -1.3 84
2019-09-23 06:00:00 16.2 10 Sur 22 Sur 0 1004.5 -1.1 84
2019-09-23 05:00:00 16.1 11 Sur 22 Sur 0 1005 -0.3 82
2019-09-23 04:00:00 15.9 13 Sur 30 Sur 0 1005.2 0.1 83
2019-09-23 03:00:00 15.8 13 Sur 26 Sur 0 1005.6 0.6 84
2019-09-23 02:00:00 15.6 17 Sur 28 Sur 0 1005.3 0 85
2019-09-23 01:00:00 15.7 19 Sudoeste 32 Sur 0 1005.1 0.2 85
2019-09-23 00:00:00 15.8 15 Sudoeste 24 Sudoeste 0 1005 0.4 84
2019-09-22 23:00:00 16.3 8 Sur 26 Sudoeste 0 1005.3 1.2 81
2019-09-22 22:00:00 16.7 15 Sudoeste 22 Sudoeste 0 1004.9 1.5 77
2019-09-22 21:00:00 17.4 9 Sudoeste 30 Sudoeste 0 1004.6 1.6 71
2019-09-22 20:00:00 19.2 15 Sudoeste 32 Oeste 0 1004.1 1.2 63
2019-09-22 19:00:00 21.4 14 Oeste 41 Oeste 0 1003.4 0.8 56
2019-09-22 18:00:00 21.9 23 Oeste 35 Oeste 0 1003 0.7 51
2019-09-22 17:00:00 21.3 17 Oeste 35 Oeste 0 1002.9 0.7 58
2019-09-22 16:00:00 18.5 16 Oeste 33 Oeste 0.1 1002.6 0.5 75
2019-09-22 15:00:00 21.2 22 Oeste 39 Oeste 0 1002.3 0.6 52
2019-09-22 14:00:00 20.3 22 Oeste 39 Sudoeste 0 1002.2 0.9 60
2019-09-22 13:00:00 20.2 22 Oeste 42 Oeste 0 1002.1 1.6 55
2019-09-22 12:00:00 20.2 19 Oeste 39 Sudoeste 0 1001.7 -- 60
2019-09-22 11:00:00 18.9 25 Sudoeste 33 Sudoeste 0 1001.3 -- 67
2019-09-22 10:00:00 16.7 11 Sudoeste -- -- -- 1000.5 -- 79
2019-09-22 09:00:00 -- -- -- -- -- -- -- -- --
2019-09-22 08:00:00 -- -- -- -- -- -- -- -- --
2019-09-22 07:00:00 -- -- -- -- -- -- -- -- --
2019-09-22 06:00:00 -- -- -- -- -- -- -- -- --
2019-09-22 05:00:00 -- -- -- -- -- -- -- -- --
2019-09-22 04:00:00 14.6 15 Sur 22 Sur 0 997.4 1.3 85
2019-09-22 03:00:00 14.9 10 Sur 18 Sudoeste 0 997 1.5 82
2019-09-22 02:00:00 15.8 13 Sudoeste 26 Oeste 0 996.5 1.3 77
2019-09-22 01:00:00 16.6 14 Oeste 28 Oeste 0 996.1 1.4 76
2019-09-22 00:00:00 16.5 12 Sudoeste 21 Sudoeste 0 995.5 1.4 80
2019-09-21 23:00:00 16.7 14 Sur 30 Sudoeste 0 995.2 1.2 82
2019-09-21 22:00:00 16.9 15 Sudoeste 24 Sudoeste 0 994.7 1.3 80
2019-09-21 21:00:00 17.3 12 Sur 30 Sur 0 994.1 1.4 80
2019-09-21 20:00:00 18.7 19 Sudoeste 41 Sudoeste 0 994 1.4 65
2019-09-21 19:00:00 20.9 21 Oeste 41 Sudoeste 0 993.4 0.7 54
2019-09-21 18:00:00 20.7 17 Sudoeste 30 Sudoeste 0 992.7 -0.3 61
2019-09-21 17:00:00 20.2 15 Oeste 41 Sudoeste 0 992.6 -0.4 75
2019-09-21 16:00:00 20.4 34 Sudoeste 59 Sudoeste 0 992.7 -0.3 73
2019-09-21 15:00:00 18.9 14 Sur 45 Sudoeste 0 993 0 93
2019-09-21 14:00:00 20.4 32 Sur 65 Sur 0 993 -0.8 80
2019-09-21 13:00:00 21.5 26 Sur 48 Sur 0 993 -0.3 77
2019-09-21 12:00:00 19.6 22 Sur 45 Sur 0 993 0.1 78
2019-09-21 11:00:00 19 23 Sur 42 Sudoeste 0 993.8 0.6 86
2019-09-21 10:00:00 19 13 Sur 22 Sudeste 0 993.3 -0.1 80
2019-09-21 09:00:00 17.8 9 Sur 17 Sudeste 0 992.9 -1.1 86
2019-09-21 08:00:00 17.5 7 Sudeste 37 Sur 0.3 993.2 -1.5 87
2019-09-21 07:00:00 18.2 14 Sudeste 30 Sudeste 0 993.4 -2.2 79
2019-09-21 06:00:00 18.4 13 Sudeste 32 Sur 0 994 -2.8 77
2019-09-21 05:00:00 17.7 3 Sudeste 22 Este 0 994.7 -2.4 79
2019-09-21 04:00:00 17.5 13 Sudeste 22 Sur 0 995.6 -1.6 80
2019-09-21 03:00:00 17 12 Sur 26 Sur 0 996.8 -1 83
2019-09-21 02:00:00 16.5 14 Sur 21 Sur 0 997.1 -1.3 92
2019-09-21 01:00:00 16.4 12 Sur 22 Sudeste 0 997.2 -1.6 90
2019-09-21 00:00:00 17 13 Sur 33 Sur 0 997.8 -0.9 85
2019-09-20 23:00:00 17.2 14 Sur 18 Sur 0 998.4 -0.6 84
2019-09-20 22:00:00 18.4 17 Sudoeste 26 Sudoeste 0 998.8 -0.2 78
2019-09-20 21:00:00 19.6 5 Sur 17 Sudoeste 0 998.7 0.2 73
2019-09-20 20:00:00 21.2 11 Sur 26 Sur 0 999 0.1 66
2019-09-20 19:00:00 22 10 Sur 32 Sur 0 999 -0.6 66
2019-09-20 18:00:00 20.8 10 Oeste 22 Sudoeste 0 998.5 -1.5 74
2019-09-20 17:00:00 20.2 10 Nordeste 18 Nordeste 0 998.9 -1.7 76
2019-09-20 16:00:00 22 5 Nordeste 21 Sudoeste 0 999.6 -1.4 68
2019-09-20 15:00:00 20.9 10 Norte 15 Nordeste 0 1000 -1.3 75
2019-09-20 14:00:00 18.8 10 Norte 17 Norte 0 1000.6 -0.8 81
2019-09-20 13:00:00 18.3 9 Norte 13 Norte 0 1001 -0.1 88
2019-09-20 12:00:00 16.8 6 Norte 11 Norte 0 1001.3 0.2 96
2019-09-20 11:00:00 15.8 4 Noroeste 9 Noroeste 0 1001.4 0.2 100
2019-09-20 10:00:00 14.8 2 Norte 9 Este 0 1001.1 -0.1 100
2019-09-20 09:00:00 14.2 3 Sudeste 5 Este 0 1001.1 -0.5 100
2019-09-20 08:00:00 13.9 3 Noroeste 17 Sudeste 0.6 1001.2 -0.8 100
2019-09-20 07:00:00 13.7 3 Sudeste 13 Este 0 1001.2 -1.4 100
2019-09-20 06:00:00 13.5 4 Sudeste 8 Sudeste 0 1001.6 -1.4 100
2019-09-20 05:00:00 13.5 6 Este 9 Este 0 1002 -1.1 100
2019-09-20 04:00:00 13.8 3 Norte 9 Norte 0 1002.6 -1 100
2019-09-20 03:00:00 13.6 0 Calma 8 Este 0 1003 -0.7 100
2019-09-20 02:00:00 13.8 2 Nordeste 8 Norte 0 1003.1 -0.7 100
2019-09-20 01:00:00 13.9 4 Norte 9 Norte 0 1003.6 0 100
2019-09-20 00:00:00 14.5 4 Norte 9 Norte 0 1003.7 0.6 100
2019-09-19 23:00:00 15.8 3 Norte 11 Norte 0 1003.8 0.7 94
2019-09-19 22:00:00 16.6 9 Norte 13 Norte 0 1003.6 0.7 88
2019-09-19 21:00:00 17.7 3 Nordeste 17 Nordeste 0 1003.1 0.3 81
2019-09-19 20:00:00 19.1 9 Este 11 Este 0 1003.1 0.2 75
2019-09-19 19:00:00 21.6 3 Norte 17 Noroeste 0 1002.9 -0.4 68
2019-09-19 18:00:00 23.6 11 Norte 21 Noroeste 0 1002.8 -1.2 61
2019-09-19 17:00:00 24.9 12 Noroeste 21 Norte 0 1002.9 -1.6 58
2019-09-19 16:00:00 25.5 13 Norte 21 Norte 0 1003.3 -1.8 57
2019-09-19 15:00:00 24.9 12 Norte 18 Norte 0 1004 -1.3 61
2019-09-19 14:00:00 25.2 11 Norte 15 Nordeste 0 1004.5 -0.9 62
2019-09-19 13:00:00 25 9 Sudeste 17 Sudeste 0 1005.1 -0.2 62
2019-09-19 12:00:00 22.9 6 Sur 18 Sur 0 1005.3 0.2 69
2019-09-19 11:00:00 20.1 4 Sur 15 Sur 0 1005.4 0.6 80
2019-09-19 10:00:00 16.9 0 Calma 15 Sudeste 0 1005.3 0.4 99
2019-09-19 09:00:00 14.8 5 Sur 8 Sur 0 1005.1 0.3 100
2019-09-19 08:00:00 14.3 4 Sur 17 Sudeste 0 1004.8 -0.1 100
2019-09-19 07:00:00 14.6 5 Sur 15 Sur 0 1004.9 -0.1 100
2019-09-19 06:00:00 15.3 3 Sur 8 Sur 0 1004.8 -0.6 100
2019-09-19 05:00:00 15.9 0 Calma 5 Sudeste 0 1004.9 -0.5 100
2019-09-19 04:00:00 16.3 5 Sur 8 Sudeste 0 1005 -0.5 100
2019-09-19 03:00:00 17.5 0 Calma 4 Este 0 1005.4 -0.2 93
2019-09-19 02:00:00 18.1 2 Este 9 Sudeste 0 1005.4 -0.1 88
2019-09-19 01:00:00 18.8 7 Sudeste 9 Sur 0 1005.5 0.4 86
2019-09-19 00:00:00 19.4 6 Sudeste 15 Sudeste 0 1005.6 1.1 83
2019-09-18 23:00:00 19.6 4 Sur 11 Sur 0 1005.5 1.5 83
2019-09-18 22:00:00 20.7 5 Norte 13 Norte 0 1005.1 1.3 77
2019-09-18 21:00:00 21.4 9 Norte 18 Norte 0 1004.5 0.8 74
2019-09-18 20:00:00 23.6 11 Norte 18 Norte 0 1004 0.1 66
2019-09-18 19:00:00 25.6 13 Norte 21 Norte 0 1003.8 -0.5 61
2019-09-18 18:00:00 26.7 10 Norte 22 Norte 0 1003.7 -1 57
2019-09-18 17:00:00 27 11 Norte 24 Norte 0 1003.9 -1.1 54
2019-09-18 16:00:00 26 10 Norte 21 Norte 0 1004.3 -0.9 58
2019-09-18 15:00:00 25.5 10 Nordeste 18 Norte 0 1004.7 -0.4 63
2019-09-18 14:00:00 25.4 8 Norte 13 Nordeste 0 1005 -0.1 63
2019-09-18 13:00:00 23.8 5 Norte 13 Noroeste 0 1005.2 0.4 70
2019-09-18 12:00:00 21.5 3 Norte 8 Norte 0 1005.1 0.7 78
2019-09-18 11:00:00 18.4 0 Calma 5 Sur 0 1005.1 1.2 92
2019-09-18 10:00:00 16.7 2 Sudoeste 11 Sur 0 1004.8 1.3 100
2019-09-18 09:00:00 16.1 0 Calma -- -- 0 1004.4 0.8 100
2019-09-18 08:00:00 15.9 3 Sur 15 Este 0 1003.9 0.2 100
2019-09-18 07:00:00 16.5 4 Sur 13 Sur 0 1003.5 -0.1 100
2019-09-18 06:00:00 16.4 4 Sur 11 Sur 0 1003.6 -0.5 97
2019-09-18 05:00:00 17.1 0 Calma 13 Sur 0 1003.7 0.1 100
2019-09-18 04:00:00 17.6 11 Sur 13 Sur 0 1003.6 0.4 100
2019-09-18 03:00:00 17.6 8 Sur 17 Sudoeste 0 1004.1 0.1 100
2019-09-18 02:00:00 18.2 5 Oeste 13 Nordeste 0 1003.6 -0.8 100
2019-09-18 01:00:00 19 2 Norte -- -- 0 1003.2 -0.6 100
2019-09-18 00:00:00 19.3 8 Sur 17 Sudeste 0 1004 0.7 100
2019-09-17 23:00:00 19.5 11 Sur 22 Sudeste 0 1004.4 0.9 100
2019-09-17 22:00:00 19.5 6 Este 15 Este 0.1 1003.8 0 100
2019-09-17 21:00:00 19.9 6 Sur 17 Sudeste 0 1003.3 -0.3 92